createdAt,value
2023-04-24T00:02:16.122Z,0.60
2023-04-24T00:04:47.004Z,0.70
2023-04-24T00:07:14.579Z,0.60
2023-04-24T00:09:43.378Z,0.77
2023-04-24T00:12:11.379Z,0.60
2023-04-24T00:14:38.580Z,0.70
2023-04-24T00:17:06.041Z,0.80
2023-04-24T00:19:33.458Z,1.77
2023-04-24T00:22:01.161Z,1.93
2023-04-24T00:24:28.613Z,2.00
2023-04-24T00:26:56.044Z,2.30
2023-04-24T00:29:23.741Z,3.37
2023-04-24T00:31:51.255Z,2.40
2023-04-24T00:34:19.662Z,0.87
2023-04-24T00:36:47.592Z,0.90
2023-04-24T00:39:15.230Z,0.60
2023-04-24T00:41:44.372Z,0.73
2023-04-24T00:44:11.723Z,0.70
2023-04-24T00:46:39.696Z,0.77
2023-04-24T00:49:10.164Z,0.70
2023-04-24T00:51:38.340Z,0.80
2023-04-24T00:54:05.855Z,0.83
2023-04-24T00:56:33.352Z,1.73
2023-04-24T00:59:00.932Z,2.20
2023-04-24T01:01:28.276Z,2.20
2023-04-24T01:03:56.212Z,2.50
2023-04-24T01:06:24.255Z,2.93
2023-04-24T01:08:51.465Z,1.07
2023-04-24T01:11:19.590Z,1.07
2023-04-24T01:13:47.441Z,1.37
2023-04-24T01:16:18.832Z,0.70
2023-04-24T01:18:47.219Z,1.13
2023-04-24T01:21:17.799Z,0.60
2023-04-24T01:23:46.172Z,0.70
2023-04-24T01:26:15.958Z,0.60
2023-04-24T01:28:43.767Z,0.80
2023-04-24T01:31:11.220Z,0.60
2023-04-24T01:33:38.968Z,0.73
2023-04-24T01:36:06.493Z,0.80
2023-04-24T01:38:33.900Z,1.77
2023-04-24T01:41:01.297Z,2.57
2023-04-24T01:43:28.779Z,2.20
2023-04-24T01:45:56.271Z,2.80
2023-04-24T01:48:24.163Z,3.33
2023-04-24T01:50:51.545Z,1.33
2023-04-24T01:53:18.874Z,1.27
2023-04-24T01:55:46.616Z,1.10
2023-04-24T01:58:15.026Z,0.57
2023-04-24T02:00:43.073Z,0.80
2023-04-24T02:03:10.938Z,0.60
2023-04-24T02:05:38.460Z,0.60
2023-04-24T02:08:05.981Z,0.80
2023-04-24T02:10:33.259Z,2.10
2023-04-24T02:13:01.839Z,2.40
2023-04-24T02:15:29.537Z,2.40
2023-04-24T02:17:56.836Z,2.20
2023-04-24T02:20:24.483Z,2.40
2023-04-24T02:22:52.003Z,2.43
2023-04-24T02:25:19.788Z,1.50
2023-04-24T02:27:47.090Z,1.37
2023-04-24T02:30:15.455Z,0.67
2023-04-24T02:32:44.685Z,1.83
2023-04-24T02:35:12.431Z,0.60
2023-04-24T02:37:40.061Z,1.10
2023-04-24T02:40:08.602Z,0.67
2023-04-24T02:42:35.964Z,0.77
2023-04-24T02:45:03.418Z,1.57
2023-04-24T02:47:30.877Z,2.30
2023-04-24T02:49:58.320Z,2.60
2023-04-24T02:52:26.014Z,2.83
2023-04-24T02:54:54.961Z,2.37
2023-04-24T02:57:22.220Z,2.50
2023-04-24T02:59:49.506Z,2.20
2023-04-24T03:02:16.767Z,1.03
2023-04-24T03:04:45.165Z,0.80
2023-04-24T03:07:13.005Z,0.67
2023-04-24T03:09:40.427Z,0.90
2023-04-24T03:12:08.054Z,0.60
2023-04-24T03:14:36.161Z,1.00
2023-04-24T03:17:03.791Z,1.70
2023-04-24T03:19:31.361Z,2.70
2023-04-24T03:21:58.789Z,2.63
2023-04-24T03:24:29.114Z,2.30
2023-04-24T03:26:58.169Z,2.43
2023-04-24T03:29:25.591Z,2.70
2023-04-24T03:31:53.337Z,3.67
2023-04-24T03:34:20.998Z,3.00
2023-04-24T03:36:51.260Z,1.00
2023-04-24T03:39:18.956Z,1.10
2023-04-24T03:41:46.624Z,1.03
2023-04-24T03:44:15.178Z,0.70
2023-04-24T03:46:43.998Z,1.03
2023-04-24T03:49:12.833Z,0.60
2023-04-24T03:51:40.287Z,0.70
2023-04-24T03:54:07.602Z,0.67
2023-04-24T03:56:35.262Z,1.00
2023-04-24T03:59:02.521Z,2.40
2023-04-24T04:01:30.345Z,2.30
2023-04-24T04:03:57.994Z,2.67
2023-04-24T04:06:25.592Z,2.80
2023-04-24T04:08:53.055Z,2.43
2023-04-24T04:11:20.397Z,2.97
2023-04-24T04:13:49.317Z,1.47
2023-04-24T04:16:19.256Z,1.10
2023-04-24T04:18:46.825Z,1.13
2023-04-24T04:21:14.227Z,0.83
2023-04-24T04:23:41.890Z,0.70
2023-04-24T04:26:09.295Z,0.80
2023-04-24T04:28:36.907Z,0.70
2023-04-24T04:31:04.241Z,1.47
2023-04-24T04:33:32.424Z,2.80
2023-04-24T04:35:59.706Z,2.40
2023-04-24T04:38:31.226Z,3.27
2023-04-24T04:40:58.800Z,3.13
2023-04-24T04:43:26.574Z,2.97
2023-04-24T04:45:55.846Z,3.90
2023-04-24T04:48:23.715Z,3.43
2023-04-24T04:50:51.203Z,3.07
2023-04-24T04:53:18.528Z,1.50
2023-04-24T04:55:47.966Z,0.70
2023-04-24T04:58:15.377Z,0.80
2023-04-24T05:00:43.636Z,0.80
2023-04-24T05:03:20.678Z,0.80
2023-04-24T05:05:48.524Z,1.10
2023-04-24T05:08:26.513Z,0.70
2023-04-24T05:10:55.113Z,3.43
2023-04-24T05:13:35.598Z,1.47
2023-04-24T05:16:06.452Z,0.90
2023-04-24T05:18:33.840Z,2.00
2023-04-24T05:21:01.414Z,2.83
2023-04-24T05:23:28.664Z,2.30
2023-04-24T05:25:56.039Z,2.90
2023-04-24T05:28:23.331Z,3.83
2023-04-24T05:30:51.161Z,2.60
2023-04-24T05:33:18.269Z,1.37
2023-04-24T05:35:48.143Z,0.60
2023-04-24T05:38:18.840Z,0.70
2023-04-24T05:40:47.397Z,0.73
2023-04-24T05:43:15.367Z,0.80
2023-04-24T05:45:42.947Z,0.80
2023-04-24T05:48:10.314Z,0.73
2023-04-24T05:50:37.654Z,0.70
2023-04-24T05:53:05.794Z,1.00
2023-04-24T05:55:33.578Z,2.27
2023-04-24T05:58:01.124Z,2.70
2023-04-24T06:00:28.861Z,2.70
2023-04-24T06:02:56.720Z,2.77
2023-04-24T06:05:24.592Z,3.53
2023-04-24T06:07:52.435Z,1.87
2023-04-24T06:10:19.788Z,1.67
2023-04-24T06:12:47.494Z,1.17
2023-04-24T06:15:14.981Z,0.70
2023-04-24T06:17:44.479Z,0.80
2023-04-24T06:20:14.125Z,0.63
2023-04-24T06:22:41.932Z,0.80
2023-04-24T06:25:09.637Z,0.70
2023-04-24T06:27:36.963Z,0.80
2023-04-24T06:30:04.763Z,1.47
2023-04-24T06:32:32.484Z,2.10
2023-04-24T06:34:59.905Z,2.50
2023-04-24T06:37:27.625Z,2.20
2023-04-24T06:39:55.038Z,2.40
2023-04-24T06:42:23.466Z,1.63
2023-04-24T06:44:51.135Z,2.63
2023-04-24T06:47:18.645Z,1.10
2023-04-24T06:49:46.636Z,0.60
2023-04-24T06:52:15.202Z,0.70
2023-04-24T06:54:44.674Z,0.60
2023-04-24T06:57:13.257Z,0.70
2023-04-24T06:59:40.858Z,0.70
2023-04-24T07:02:08.555Z,0.80
2023-04-24T07:04:36.508Z,0.90
2023-04-24T07:07:04.409Z,1.97
2023-04-24T07:09:31.992Z,2.07
2023-04-24T07:11:59.509Z,2.40
2023-04-24T07:14:27.229Z,3.03
2023-04-24T07:16:54.690Z,3.07
2023-04-24T07:19:22.257Z,2.57
2023-04-24T07:21:49.749Z,1.43
2023-04-24T07:24:17.390Z,1.13
2023-04-24T07:26:45.458Z,0.60
2023-04-24T07:29:13.293Z,0.70
2023-04-24T07:31:42.708Z,0.70
2023-04-24T07:34:10.076Z,0.60
2023-04-24T07:36:39.649Z,0.70
2023-04-24T07:39:07.392Z,0.90
2023-04-24T07:41:34.990Z,1.47
2023-04-24T07:44:02.552Z,2.80
2023-04-24T07:46:31.988Z,2.53
2023-04-24T07:49:12.398Z,2.20
2023-04-24T07:51:43.039Z,0.80
2023-04-24T07:54:11.033Z,0.80
2023-04-24T07:56:40.526Z,0.70
2023-04-24T07:59:08.159Z,0.90
2023-04-24T08:01:35.904Z,1.07
2023-04-24T08:04:03.798Z,2.73
2023-04-24T08:06:31.832Z,2.50
2023-04-24T08:09:00.041Z,2.20
2023-04-24T08:11:28.384Z,2.40
2023-04-24T08:13:56.358Z,2.27
2023-04-24T08:16:25.485Z,4.70
2023-04-24T08:18:53.387Z,1.73
2023-04-24T08:21:21.982Z,2.10
2023-04-24T08:23:49.722Z,1.00
2023-04-24T08:26:17.314Z,0.90
2023-04-24T08:28:45.688Z,0.87
2023-04-24T08:31:13.391Z,0.63
2023-04-24T08:33:42.446Z,0.70
2023-04-24T08:36:09.780Z,0.80
2023-04-24T08:38:37.217Z,0.60
2023-04-24T08:41:05.906Z,1.13
2023-04-24T08:43:35.646Z,2.10
2023-04-24T08:46:06.076Z,2.30
2023-04-24T08:48:36.260Z,0.80
2023-04-24T08:51:05.152Z,2.30
2023-04-24T08:53:32.727Z,2.50
2023-04-24T08:56:00.247Z,2.50
2023-04-24T08:58:28.159Z,2.50
2023-04-24T09:00:59.689Z,2.40
2023-04-24T09:03:28.992Z,2.70
2023-04-24T09:05:57.345Z,3.23
2023-04-24T09:08:27.261Z,2.90
2023-04-24T09:10:54.829Z,2.60
2023-04-24T09:13:22.503Z,1.83
2023-04-24T09:15:49.849Z,1.77
2023-04-24T09:18:17.350Z,1.00
2023-04-24T09:21:04.723Z,0.80
2023-04-24T09:23:33.265Z,2.30
2023-04-24T09:26:02.356Z,2.50
2023-04-24T09:28:34.930Z,2.40
2023-04-24T09:31:20.019Z,2.50
2023-04-24T09:34:06.468Z,1.00
2023-04-24T09:36:40.146Z,1.30
2023-04-24T09:39:13.360Z,0.80
2023-04-24T09:42:02.539Z,0.60
2023-04-24T09:44:30.473Z,2.50
2023-04-24T09:47:01.964Z,2.20
2023-04-24T09:49:31.317Z,2.30
2023-04-24T09:52:05.981Z,2.10
2023-04-24T09:54:33.557Z,2.03
2023-04-24T09:57:04.151Z,2.03
2023-04-24T09:59:32.190Z,2.20
2023-04-24T10:02:01.472Z,2.07
2023-04-24T10:04:30.692Z,3.07
2023-04-24T10:06:59.233Z,1.97
2023-04-24T10:09:28.791Z,3.33
2023-04-24T10:11:57.157Z,2.60
2023-04-24T10:14:26.461Z,2.40
2023-04-24T10:17:00.225Z,2.83
2023-04-24T10:19:27.918Z,2.37
2023-04-24T10:21:57.436Z,2.03
2023-04-24T10:24:24.806Z,3.43
2023-04-24T10:26:52.232Z,1.83
2023-04-24T10:29:20.604Z,1.20
2023-04-24T10:31:48.707Z,1.27
2023-04-24T10:34:18.381Z,0.90
2023-04-24T10:36:54.371Z,0.80
2023-04-24T10:39:27.972Z,2.20
2023-04-24T10:41:59.386Z,2.50
2023-04-24T10:44:28.004Z,3.13
2023-04-24T10:46:57.498Z,2.83
2023-04-24T10:49:32.792Z,2.83
2023-04-24T10:52:06.937Z,2.40
2023-04-24T10:54:47.949Z,1.53
2023-04-24T10:57:24.366Z,0.80
2023-04-24T10:59:54.851Z,2.17
2023-04-24T11:02:37.837Z,2.30
2023-04-24T11:05:06.696Z,1.23
2023-04-24T11:08:19.914Z,1.90
2023-04-24T11:10:49.183Z,0.87
2023-04-24T11:13:18.148Z,0.80
2023-04-24T11:15:46.105Z,0.63
2023-04-24T11:18:17.452Z,1.13
2023-04-24T11:20:46.320Z,0.70
2023-04-24T11:23:16.488Z,1.13
2023-04-24T11:25:45.560Z,0.70
2023-04-24T11:28:17.817Z,0.77
2023-04-24T11:30:45.403Z,0.70
2023-04-24T11:33:13.134Z,0.70
2023-04-24T11:35:45.333Z,0.50
2023-04-24T11:38:24.279Z,0.60
2023-04-24T11:40:53.545Z,1.30
2023-04-24T11:43:21.599Z,2.70
2023-04-24T11:45:52.560Z,1.10
2023-04-24T11:48:23.407Z,1.27
2023-04-24T11:50:51.916Z,2.37
2023-04-24T11:53:23.179Z,1.20
2023-04-24T11:55:50.780Z,2.13
2023-04-24T11:58:23.235Z,1.53
2023-04-24T12:00:58.794Z,1.77
2023-04-24T12:03:26.893Z,2.70
2023-04-24T12:05:54.865Z,3.03
2023-04-24T12:08:31.562Z,1.80
2023-04-24T12:11:00.945Z,2.30
2023-04-24T12:13:28.885Z,2.30
2023-04-24T12:15:57.122Z,2.30
2023-04-24T12:18:25.423Z,1.90
2023-04-24T12:20:52.779Z,1.67
2023-04-24T12:23:40.467Z,1.50
2023-04-24T12:26:08.395Z,0.70
2023-04-24T12:28:41.116Z,1.23
2023-04-24T12:31:09.419Z,0.80
2023-04-24T12:33:37.807Z,0.90
2023-04-24T12:36:06.932Z,1.33
2023-04-24T12:38:41.517Z,1.80
2023-04-24T12:41:14.314Z,0.70
2023-04-24T12:43:53.104Z,0.70
2023-04-24T12:46:22.464Z,2.30
2023-04-24T12:48:50.139Z,1.53
2023-04-24T12:51:17.837Z,1.07
2023-04-24T12:53:45.649Z,0.60
2023-04-24T12:56:13.450Z,0.77
2023-04-24T12:58:40.983Z,0.60
2023-04-24T13:01:08.953Z,0.70
2023-04-24T13:03:37.299Z,0.90
2023-04-24T13:06:04.954Z,1.73
2023-04-24T13:08:32.609Z,2.20
2023-04-24T13:10:59.929Z,2.10
2023-04-24T13:13:27.538Z,2.60
2023-04-24T13:15:54.947Z,2.03
2023-04-24T13:18:22.875Z,1.43
2023-04-24T13:20:50.845Z,1.77
2023-04-24T13:23:18.889Z,1.13
2023-04-24T13:25:47.151Z,0.60
2023-04-24T13:28:16.479Z,0.87
2023-04-24T13:30:44.454Z,0.60
2023-04-24T13:33:12.200Z,0.53
2023-04-24T13:35:39.673Z,0.77
2023-04-24T13:38:10.470Z,0.80
2023-04-24T13:40:38.600Z,0.60
2023-04-24T13:43:06.376Z,0.93
2023-04-24T13:45:33.863Z,1.73
2023-04-24T13:48:01.705Z,2.20
2023-04-24T13:50:28.992Z,2.10
2023-04-24T13:52:58.541Z,2.50
2023-04-24T13:55:27.213Z,2.60
2023-04-24T13:57:56.527Z,2.30
2023-04-24T14:00:24.177Z,2.90
2023-04-24T14:02:51.938Z,2.57
2023-04-24T14:05:19.773Z,1.20
2023-04-24T14:07:47.483Z,1.07
2023-04-24T14:10:16.047Z,0.60
2023-04-24T14:12:47.040Z,0.90
2023-04-24T14:15:15.157Z,0.80
2023-04-24T14:17:44.400Z,0.80
2023-04-24T14:20:14.539Z,0.90
2023-04-24T14:22:43.914Z,0.80
2023-04-24T14:25:11.450Z,0.70
2023-04-24T14:27:39.137Z,0.80
2023-04-24T14:30:07.484Z,0.80
2023-04-24T14:32:35.045Z,1.60
2023-04-24T14:35:02.535Z,1.93
2023-04-24T14:37:30.322Z,2.10
2023-04-24T14:40:11.796Z,2.40
2023-04-24T14:42:45.947Z,0.80
2023-04-24T14:45:15.158Z,0.67
2023-04-24T14:47:43.808Z,0.70
2023-04-24T14:50:11.402Z,0.73
2023-04-24T14:52:38.935Z,0.73
2023-04-24T14:55:08.295Z,0.90
2023-04-24T14:57:37.312Z,1.20
2023-04-24T15:00:07.642Z,1.30
2023-04-24T15:02:35.705Z,1.17
2023-04-24T15:05:04.130Z,2.10
2023-04-24T15:07:32.291Z,2.30
2023-04-24T15:09:59.990Z,1.83
2023-04-24T15:12:27.384Z,2.83
2023-04-24T15:14:54.766Z,4.20
2023-04-24T15:17:22.264Z,1.53
2023-04-24T15:19:50.144Z,0.93
2023-04-24T15:22:18.041Z,0.83
2023-04-24T15:24:46.520Z,0.63
2023-04-24T15:27:32.706Z,0.70
2023-04-24T15:30:09.234Z,2.20
2023-04-24T15:32:56.141Z,0.90
2023-04-24T15:35:23.928Z,1.50
2023-04-24T15:37:51.927Z,1.90
2023-04-24T15:40:19.522Z,1.00
2023-04-24T15:42:49.428Z,0.67
2023-04-24T15:45:18.735Z,0.70
2023-04-24T15:47:51.268Z,0.80
2023-04-24T15:50:24.279Z,0.83
2023-04-24T15:52:53.633Z,2.33
2023-04-24T15:59:14.619Z,0.60
2023-04-24T16:01:49.096Z,0.80
2023-04-24T16:04:53.734Z,0.70
2023-04-24T16:07:21.491Z,1.67
2023-04-24T16:12:34.086Z,2.03
2023-04-24T16:15:02.353Z,1.83
2023-04-24T16:17:29.613Z,1.83
2023-04-24T16:19:57.183Z,2.43
2023-04-24T16:22:29.297Z,2.03
2023-04-24T16:24:57.270Z,2.00
2023-04-24T16:27:25.599Z,2.00
2023-04-24T16:29:53.802Z,1.10
2023-04-24T16:32:22.167Z,1.37
2023-04-24T16:34:49.529Z,0.97
2023-04-24T16:37:17.376Z,0.50
2023-04-24T16:39:45.649Z,0.70
2023-04-24T16:42:14.088Z,0.60
2023-04-24T16:44:41.984Z,0.77
2023-04-24T16:47:14.743Z,0.60
2023-04-24T16:49:42.441Z,0.60
2023-04-24T16:52:11.019Z,0.60
2023-04-24T16:54:38.391Z,1.83
2023-04-24T16:57:08.075Z,1.03
2023-04-24T16:59:36.034Z,1.33
2023-04-24T17:02:03.589Z,2.07
2023-04-24T17:04:32.476Z,2.03
2023-04-24T17:06:59.811Z,1.93
2023-04-24T17:09:27.404Z,2.10
2023-04-24T17:11:55.496Z,2.30
2023-04-24T17:14:24.190Z,1.37
2023-04-24T17:16:51.563Z,2.07
2023-04-24T17:19:18.964Z,0.97
2023-04-24T17:21:46.934Z,0.60
2023-04-24T17:24:26.968Z,0.67
2023-04-24T17:26:56.577Z,1.93
2023-04-24T17:29:28.813Z,2.10
2023-04-24T17:31:56.332Z,2.03
2023-04-24T17:34:23.707Z,1.80
2023-04-24T17:36:50.904Z,1.53
2023-04-24T17:39:18.224Z,0.80
2023-04-24T17:41:45.937Z,0.60
2023-04-24T17:44:13.385Z,0.60
2023-04-24T17:46:40.965Z,0.80
2023-04-24T17:49:08.284Z,0.60
2023-04-24T17:51:35.655Z,1.10
2023-04-24T17:54:03.115Z,1.63
2023-04-24T17:56:30.389Z,2.10
2023-04-24T17:59:24.808Z,2.40
2023-04-24T18:01:53.332Z,1.80
2023-04-24T18:04:33.616Z,1.27
2023-04-24T18:07:01.024Z,1.80
2023-04-24T18:09:28.423Z,2.07
2023-04-24T18:11:57.392Z,2.20
2023-04-24T18:14:26.024Z,2.17
2023-04-24T18:16:53.472Z,1.63
2023-04-24T18:19:20.785Z,1.77
2023-04-24T18:21:48.077Z,1.07
2023-04-24T18:24:15.874Z,0.60
2023-04-24T18:26:43.258Z,0.90
2023-04-24T18:29:10.621Z,0.70
2023-04-24T18:31:38.056Z,0.70
2023-04-24T18:34:05.576Z,1.20
2023-04-24T18:36:33.548Z,2.50
2023-04-24T18:39:01.046Z,2.00
2023-04-24T18:41:28.447Z,2.63
2023-04-24T18:43:58.621Z,3.70
2023-04-24T18:46:26.203Z,1.77
2023-04-24T18:48:53.695Z,2.00
2023-04-24T18:51:21.000Z,1.70
2023-04-24T18:53:48.499Z,0.77
2023-04-24T18:56:16.880Z,0.50
2023-04-24T18:58:46.625Z,0.90
2023-04-24T19:01:14.634Z,2.40
2023-04-24T19:03:41.988Z,0.90
2023-04-24T19:06:09.499Z,0.70
2023-04-24T19:08:39.037Z,1.00
2023-04-24T19:11:06.460Z,1.07
2023-04-24T19:13:34.343Z,1.63
2023-04-24T19:16:01.594Z,1.93
2023-04-24T19:18:29.748Z,2.10
2023-04-24T19:20:57.288Z,2.43
2023-04-24T19:23:24.655Z,1.93
2023-04-24T19:25:52.039Z,1.50
2023-04-24T19:28:20.550Z,0.93
2023-04-24T19:30:47.930Z,0.93
2023-04-24T19:33:15.873Z,0.50
2023-04-24T19:35:44.036Z,0.70
2023-04-24T19:38:32.040Z,0.60
2023-04-24T19:40:59.346Z,1.80
2023-04-24T19:43:26.814Z,2.00
2023-04-24T19:45:54.234Z,2.53
2023-04-24T19:48:21.519Z,1.83
2023-04-24T19:50:48.863Z,1.00
2023-04-24T19:53:16.436Z,0.90
2023-04-24T19:55:43.998Z,0.70
2023-04-24T19:58:11.365Z,0.67
2023-04-24T20:00:38.714Z,0.63
2023-04-24T20:03:06.133Z,1.13
2023-04-24T20:05:33.742Z,2.10
2023-04-24T20:08:01.056Z,2.10
2023-04-24T20:10:28.559Z,2.57
2023-04-24T20:12:56.161Z,2.50
2023-04-24T20:15:23.568Z,1.43
2023-04-24T20:17:50.930Z,2.00
2023-04-24T20:20:18.516Z,1.00
2023-04-24T20:22:46.121Z,1.07
2023-04-24T20:25:13.869Z,0.70
2023-04-24T20:27:57.233Z,1.10
2023-04-24T20:30:25.528Z,2.90
2023-04-24T20:32:53.377Z,1.73
2023-04-24T20:35:20.777Z,1.40
2023-04-24T20:37:49.323Z,1.10
2023-04-24T20:40:17.395Z,0.60
2023-04-24T20:42:46.669Z,0.90
2023-04-24T20:45:14.324Z,0.70
2023-04-24T20:47:41.713Z,1.90
2023-04-24T20:50:09.667Z,1.63
2023-04-24T20:52:37.078Z,1.40
2023-04-24T20:55:04.974Z,2.20
2023-04-24T20:57:32.434Z,2.20
2023-04-24T20:59:59.785Z,2.40
2023-04-24T21:02:27.176Z,2.70
2023-04-24T21:04:54.592Z,2.07
2023-04-24T21:07:57.908Z,1.90
2023-04-24T21:10:26.554Z,2.00
2023-04-24T21:12:54.454Z,2.43
2023-04-24T21:15:21.880Z,1.50
2023-04-24T21:17:49.370Z,1.23
2023-04-24T21:20:17.102Z,0.70
2023-04-24T21:22:45.113Z,1.43
2023-04-24T21:25:12.558Z,0.63
2023-04-24T21:27:40.090Z,0.80
2023-04-24T21:30:09.057Z,0.90
2023-04-24T21:32:36.338Z,1.43
2023-04-24T21:35:04.229Z,2.10
2023-04-24T21:37:33.823Z,2.07
2023-04-24T21:40:01.163Z,2.20
2023-04-24T21:42:28.438Z,2.10
2023-04-24T21:44:55.889Z,2.70
2023-04-24T21:47:23.359Z,1.77
2023-04-24T21:49:50.953Z,1.97
2023-04-24T21:52:18.282Z,0.97
2023-04-24T21:54:46.012Z,1.33
2023-04-24T21:57:13.838Z,1.33
2023-04-24T21:59:41.219Z,0.60
2023-04-24T22:02:08.681Z,0.60
2023-04-24T22:04:36.335Z,2.27
2023-04-24T22:07:03.940Z,2.20
2023-04-24T22:09:31.350Z,2.13
2023-04-24T22:11:58.698Z,2.10
2023-04-24T22:14:26.455Z,1.90
2023-04-24T22:16:57.349Z,1.63
2023-04-24T22:19:26.533Z,2.30
2023-04-24T22:21:53.859Z,2.00
2023-04-24T22:24:21.212Z,2.13
2023-04-24T22:26:48.693Z,1.33
2023-04-24T22:29:16.590Z,0.70
2023-04-24T22:31:44.099Z,0.90
2023-04-24T22:34:11.743Z,0.80
2023-04-24T22:36:39.104Z,0.70
2023-04-24T22:39:06.478Z,1.30
2023-04-24T22:41:34.536Z,2.20
2023-04-24T22:44:01.889Z,2.03
2023-04-24T22:46:29.358Z,2.00
2023-04-24T22:48:58.791Z,2.07
2023-04-24T22:51:26.379Z,1.90
2023-04-24T22:53:55.031Z,1.67
2023-04-24T22:56:22.419Z,2.30
2023-04-24T22:58:49.934Z,1.37
2023-04-24T23:01:17.681Z,0.70
2023-04-24T23:03:45.403Z,0.80
2023-04-24T23:06:13.371Z,0.60
2023-04-24T23:08:40.691Z,0.60
2023-04-24T23:11:08.249Z,0.70
2023-04-24T23:13:35.573Z,1.83
2023-04-24T23:16:03.001Z,2.40
2023-04-24T23:18:30.375Z,2.00
2023-04-24T23:20:58.149Z,3.03
2023-04-24T23:23:25.769Z,2.10
2023-04-24T23:25:53.125Z,3.97
2023-04-24T23:28:20.925Z,0.90
2023-04-24T23:30:48.257Z,0.87
2023-04-24T23:33:15.762Z,0.60
2023-04-24T23:35:43.412Z,0.70
2023-04-24T23:38:11.217Z,0.70
2023-04-24T23:40:38.625Z,0.63
2023-04-24T23:43:08.250Z,1.63
2023-04-24T23:45:37.165Z,1.53
2023-04-24T23:48:05.016Z,2.10
2023-04-24T23:50:32.503Z,2.20
2023-04-24T23:53:00.021Z,2.70
2023-04-24T23:55:27.421Z,3.23
2023-04-24T23:57:54.803Z,2.93
